createdAt,value
2019-03-22T00:00:29.421Z,2.67
2019-03-22T00:01:29.385Z,2.74
2019-03-22T00:02:29.367Z,2.74
2019-03-22T00:03:29.355Z,2.79
2019-03-22T00:04:40.114Z,2.81
2019-03-22T00:05:29.332Z,2.79
2019-03-22T00:06:29.357Z,2.74
2019-03-22T00:07:29.314Z,2.81
2019-03-22T00:08:29.302Z,2.81
2019-03-22T00:09:29.289Z,2.67
2019-03-22T00:10:29.280Z,2.64
2019-03-22T00:11:29.269Z,2.84
2019-03-22T00:12:29.270Z,2.84
2019-03-22T00:13:29.246Z,2.84
2019-03-22T00:14:29.238Z,2.64
2019-03-22T00:15:29.224Z,2.59
2019-03-22T00:16:29.220Z,2.60
2019-03-22T00:17:29.206Z,2.57
2019-03-22T00:18:29.195Z,2.53
2019-03-22T00:19:29.186Z,2.61
2019-03-22T00:20:29.176Z,2.56
2019-03-22T00:21:29.230Z,2.67
2019-03-22T00:22:29.148Z,2.56
2019-03-22T00:23:29.138Z,2.64
2019-03-22T00:24:29.130Z,2.74
2019-03-22T00:25:29.120Z,2.71
2019-03-22T00:26:29.109Z,2.59
2019-03-22T00:27:29.104Z,2.64
2019-03-22T00:28:29.085Z,2.53
2019-03-22T00:29:29.081Z,2.56
2019-03-22T00:30:29.061Z,2.56
2019-03-22T00:31:29.052Z,2.48
2019-03-22T00:32:29.087Z,2.36
2019-03-22T00:33:29.034Z,2.36
2019-03-22T00:34:29.020Z,2.30
2019-03-22T00:35:38.968Z,2.31
2019-03-22T00:36:28.996Z,2.36
2019-03-22T00:37:28.986Z,2.36
2019-03-22T00:38:29.075Z,2.31
2019-03-22T00:39:28.965Z,2.24
2019-03-22T00:40:28.954Z,2.20
2019-03-22T00:41:28.947Z,2.20
2019-03-22T00:42:28.935Z,2.16
2019-03-22T00:43:28.922Z,2.18
2019-03-22T00:44:28.949Z,2.24
2019-03-22T00:45:28.901Z,2.16
2019-03-22T00:46:28.893Z,2.16
2019-03-22T00:47:28.880Z,2.23
2019-03-22T00:48:28.872Z,2.21
2019-03-22T00:49:28.860Z,2.20
2019-03-22T00:50:28.883Z,2.12
2019-03-22T00:51:28.839Z,2.17
2019-03-22T00:52:28.827Z,2.12
2019-03-22T00:53:28.824Z,2.10
2019-03-22T00:54:28.810Z,2.10
2019-03-22T00:55:28.801Z,2.06
2019-03-22T00:56:28.806Z,2.10
2019-03-22T00:57:28.997Z,2.17
2019-03-22T00:58:28.762Z,2.09
2019-03-22T00:59:28.757Z,2.16
2019-03-22T01:00:28.741Z,2.10
2019-03-22T01:01:28.786Z,2.05
2019-03-22T01:02:28.747Z,2.16
2019-03-22T01:03:28.709Z,2.05
2019-03-22T01:04:28.701Z,2.06
2019-03-22T01:05:28.685Z,1.99
2019-03-22T01:06:40.106Z,2.05
2019-03-22T01:07:28.668Z,2.12
2019-03-22T01:08:28.661Z,2.03
2019-03-22T01:09:28.645Z,1.95
2019-03-22T01:10:28.644Z,2.03
2019-03-22T01:11:28.628Z,1.93
2019-03-22T01:12:28.617Z,1.91
2019-03-22T01:13:28.617Z,1.95
2019-03-22T01:14:28.595Z,1.88
2019-03-22T01:15:28.583Z,1.80
2019-03-22T01:16:28.567Z,1.93
2019-03-22T01:17:28.578Z,1.90
2019-03-22T01:18:28.547Z,1.83
2019-03-22T01:19:28.557Z,1.84
2019-03-22T01:20:28.527Z,1.76
2019-03-22T01:21:28.521Z,1.81
2019-03-22T01:22:28.509Z,1.84
2019-03-22T01:23:28.496Z,1.80
2019-03-22T01:24:28.489Z,1.84
2019-03-22T01:25:28.498Z,1.81
2019-03-22T01:26:28.466Z,1.70
2019-03-22T01:27:39.601Z,1.80
2019-03-22T01:28:29.438Z,1.80
2019-03-22T01:29:28.428Z,1.77
2019-03-22T01:30:28.430Z,1.72
2019-03-22T01:31:28.449Z,1.70
2019-03-22T01:32:28.404Z,1.73
2019-03-22T01:33:28.388Z,1.69
2019-03-22T01:34:28.380Z,1.68
2019-03-22T01:35:28.364Z,1.60
2019-03-22T01:36:28.363Z,1.62
2019-03-22T01:37:38.992Z,1.70
2019-03-22T01:38:28.363Z,1.66
2019-03-22T01:39:28.327Z,1.59
2019-03-22T01:40:28.314Z,1.50
2019-03-22T01:41:28.303Z,1.52
2019-03-22T01:42:28.294Z,1.55
2019-03-22T01:43:28.296Z,1.55
2019-03-22T01:44:28.268Z,1.51
2019-03-22T01:45:28.264Z,1.55
2019-03-22T01:46:28.249Z,1.51
2019-03-22T01:47:28.240Z,1.36
2019-03-22T01:48:28.232Z,1.40
2019-03-22T01:49:28.228Z,1.42
2019-03-22T01:50:28.204Z,1.47
2019-03-22T01:51:28.195Z,1.41
2019-03-22T01:52:28.191Z,1.42
2019-03-22T01:53:28.220Z,1.41
2019-03-22T01:54:28.168Z,1.36
2019-03-22T01:55:28.156Z,1.33
2019-03-22T01:56:28.151Z,1.44
2019-03-22T01:57:28.139Z,1.29
2019-03-22T01:58:28.122Z,1.32
2019-03-22T01:59:28.122Z,1.30
2019-03-22T02:00:28.136Z,1.32
2019-03-22T02:01:28.090Z,1.32
2019-03-22T02:02:28.076Z,1.40
2019-03-22T02:03:28.075Z,1.33
2019-03-22T02:04:28.061Z,1.29
2019-03-22T02:05:28.053Z,1.30
2019-03-22T02:06:28.074Z,1.34
2019-03-22T02:07:28.027Z,1.44
2019-03-22T02:08:38.192Z,1.40
2019-03-22T02:09:28.001Z,1.40
2019-03-22T02:10:27.990Z,1.26
2019-03-22T02:11:27.984Z,1.30
2019-03-22T02:12:27.991Z,1.20
2019-03-22T02:13:27.965Z,1.22
2019-03-22T02:14:27.951Z,1.14
2019-03-22T02:15:27.947Z,1.23
2019-03-22T02:16:27.932Z,1.15
2019-03-22T02:17:27.942Z,1.12
2019-03-22T02:18:27.911Z,1.18
2019-03-22T02:19:27.897Z,1.15
2019-03-22T02:20:27.893Z,1.22
2019-03-22T02:21:27.881Z,1.24
2019-03-22T02:22:27.876Z,1.15
2019-03-22T02:23:27.936Z,1.16
2019-03-22T02:24:27.841Z,1.12
2019-03-22T02:25:27.834Z,1.22
2019-03-22T02:26:27.829Z,1.16
2019-03-22T02:27:27.811Z,1.09
2019-03-22T02:28:27.806Z,1.06
2019-03-22T02:29:27.826Z,1.09
2019-03-22T02:30:27.789Z,1.08
2019-03-22T02:31:27.778Z,1.00
2019-03-22T02:32:27.758Z,0.90
2019-03-22T02:33:27.759Z,0.94
2019-03-22T02:34:27.749Z,0.98
2019-03-22T02:35:29.519Z,1.11
2019-03-22T02:36:27.715Z,1.12
2019-03-22T02:37:27.718Z,0.96
2019-03-22T02:38:27.694Z,1.02
2019-03-22T02:39:38.045Z,1.00
2019-03-22T02:40:27.691Z,1.14
2019-03-22T02:41:27.663Z,1.04
2019-03-22T02:42:27.661Z,0.96
2019-03-22T02:43:27.644Z,0.97
2019-03-22T02:44:27.637Z,0.83
2019-03-22T02:45:27.627Z,0.84
2019-03-22T02:46:27.650Z,0.84
2019-03-22T02:47:27.610Z,0.79
2019-03-22T02:48:27.601Z,0.84
2019-03-22T02:49:27.577Z,0.96
2019-03-22T02:50:27.568Z,1.00
2019-03-22T02:51:27.590Z,0.87
2019-03-22T02:52:27.565Z,0.88
2019-03-22T02:53:27.538Z,0.88
2019-03-22T02:54:27.528Z,0.86
2019-03-22T02:55:27.526Z,0.79
2019-03-22T02:56:27.508Z,0.84
2019-03-22T02:57:27.537Z,0.87
2019-03-22T02:58:27.498Z,0.79
2019-03-22T02:59:27.474Z,0.93
2019-03-22T03:00:27.467Z,0.98
2019-03-22T03:01:27.456Z,0.91
2019-03-22T03:02:27.441Z,0.91
2019-03-22T03:03:27.437Z,0.97
2019-03-22T03:04:27.426Z,0.91
2019-03-22T03:05:27.406Z,0.98
2019-03-22T03:06:27.399Z,0.94
2019-03-22T03:07:27.400Z,0.88
2019-03-22T03:08:27.408Z,0.94
2019-03-22T03:09:27.362Z,0.97
2019-03-22T03:10:37.646Z,0.94
2019-03-22T03:11:27.341Z,0.88
2019-03-22T03:12:27.337Z,0.94
2019-03-22T03:13:27.325Z,0.88
2019-03-22T03:14:27.352Z,0.79
2019-03-22T03:15:27.302Z,0.80
2019-03-22T03:16:27.290Z,0.84
2019-03-22T03:17:27.281Z,0.83
2019-03-22T03:18:27.269Z,0.78
2019-03-22T03:19:27.263Z,0.69
2019-03-22T03:20:27.272Z,0.68
2019-03-22T03:21:27.233Z,0.76
2019-03-22T03:22:27.232Z,0.69
2019-03-22T03:23:27.217Z,0.73
2019-03-22T03:24:27.248Z,0.66
2019-03-22T03:25:27.205Z,0.73
2019-03-22T03:26:27.182Z,0.73
2019-03-22T03:27:27.242Z,0.73
2019-03-22T03:28:36.677Z,0.72
2019-03-22T03:29:28.190Z,0.72
2019-03-22T03:30:27.159Z,0.72
2019-03-22T03:31:27.155Z,0.70
2019-03-22T03:32:27.144Z,0.68
2019-03-22T03:33:27.117Z,0.72
2019-03-22T03:34:27.120Z,0.61
2019-03-22T03:35:27.141Z,0.57
2019-03-22T03:36:27.085Z,0.53
2019-03-22T03:37:27.071Z,0.49
2019-03-22T03:38:27.110Z,0.57
2019-03-22T03:39:27.051Z,0.61
2019-03-22T03:40:27.035Z,0.62
2019-03-22T03:41:37.567Z,0.62
2019-03-22T03:42:27.012Z,0.57
2019-03-22T03:43:27.003Z,0.53
2019-03-22T03:44:26.996Z,0.53
2019-03-22T03:45:26.989Z,0.55
2019-03-22T03:46:26.976Z,0.60
2019-03-22T03:47:26.985Z,0.60
2019-03-22T03:48:26.988Z,0.61
2019-03-22T03:49:26.945Z,0.60
2019-03-22T03:50:26.936Z,0.57
2019-03-22T03:51:26.917Z,0.57
2019-03-22T03:52:26.919Z,0.53
2019-03-22T03:53:26.902Z,0.55
2019-03-22T03:54:26.901Z,0.47
2019-03-22T03:55:26.873Z,0.47
2019-03-22T03:56:26.868Z,0.50
2019-03-22T03:57:26.938Z,0.42
2019-03-22T03:58:26.845Z,0.49
2019-03-22T03:59:26.850Z,0.50
2019-03-22T04:00:26.820Z,0.42
2019-03-22T04:01:26.811Z,0.57
2019-03-22T04:02:26.801Z,0.53
2019-03-22T04:03:26.793Z,0.57
2019-03-22T04:04:26.842Z,0.55
2019-03-22T04:05:26.806Z,0.57
2019-03-22T04:06:26.761Z,0.47
2019-03-22T04:07:26.748Z,0.47
2019-03-22T04:08:26.745Z,0.57
2019-03-22T04:09:26.724Z,0.39
2019-03-22T04:10:26.724Z,0.39
2019-03-22T04:11:26.731Z,0.46
2019-03-22T04:12:36.690Z,0.49
2019-03-22T04:13:26.685Z,0.47
2019-03-22T04:14:26.676Z,0.57
2019-03-22T04:15:26.663Z,0.60
2019-03-22T04:16:26.653Z,0.53
2019-03-22T04:17:26.660Z,0.57
2019-03-22T04:18:26.631Z,0.58
2019-03-22T04:19:26.630Z,0.65
2019-03-22T04:20:26.612Z,0.66
2019-03-22T04:21:26.596Z,0.70
2019-03-22T04:22:26.590Z,0.60
2019-03-22T04:23:26.592Z,0.70
2019-03-22T04:24:26.574Z,0.83
2019-03-22T04:25:26.565Z,0.86
2019-03-22T04:26:26.547Z,0.73
2019-03-22T04:27:26.539Z,0.72
2019-03-22T04:28:26.564Z,0.86
2019-03-22T04:29:26.525Z,0.83
2019-03-22T04:30:26.634Z,0.83
2019-03-22T04:31:26.492Z,0.83
2019-03-22T04:32:26.487Z,0.79
2019-03-22T04:33:26.485Z,0.84
2019-03-22T04:34:26.474Z,0.96
2019-03-22T04:35:26.455Z,0.91
2019-03-22T04:36:26.441Z,0.80
2019-03-22T04:37:26.438Z,0.84
2019-03-22T04:38:26.427Z,0.86
2019-03-22T04:39:26.423Z,0.86
2019-03-22T04:40:26.396Z,0.86
2019-03-22T04:41:26.387Z,0.87
2019-03-22T04:42:26.377Z,0.84
2019-03-22T04:43:36.616Z,0.87
2019-03-22T04:44:26.366Z,0.90
2019-03-22T04:45:26.352Z,0.91
2019-03-22T04:46:26.331Z,0.90
2019-03-22T04:47:26.331Z,0.94
2019-03-22T04:48:26.312Z,0.97
2019-03-22T04:49:26.299Z,0.90
2019-03-22T04:50:26.391Z,0.88
2019-03-22T04:51:26.289Z,0.90
2019-03-22T04:52:26.281Z,0.91
2019-03-22T04:53:26.255Z,0.98
2019-03-22T04:54:26.251Z,0.97
2019-03-22T04:55:26.243Z,1.02
2019-03-22T04:56:26.265Z,1.02
2019-03-22T04:57:26.218Z,1.12
2019-03-22T04:58:26.211Z,1.06
2019-03-22T04:59:26.190Z,1.11
2019-03-22T05:00:26.181Z,0.97
2019-03-22T05:01:26.177Z,1.05
2019-03-22T05:02:26.174Z,1.05
2019-03-22T05:03:26.155Z,1.04
2019-03-22T05:04:26.139Z,1.12
2019-03-22T05:05:26.134Z,1.11
2019-03-22T05:06:26.121Z,1.16
2019-03-22T05:07:26.126Z,1.11
2019-03-22T05:08:26.103Z,1.15
2019-03-22T05:09:26.091Z,1.09
2019-03-22T05:10:26.078Z,1.20
2019-03-22T05:11:26.064Z,1.20
2019-03-22T05:12:26.054Z,1.20
2019-03-22T05:13:26.074Z,1.20
2019-03-22T05:14:36.265Z,1.22
2019-03-22T05:15:26.019Z,1.32
2019-03-22T05:16:26.013Z,1.23
2019-03-22T05:17:26.001Z,1.44
2019-03-22T05:18:25.985Z,1.40
2019-03-22T05:19:26.024Z,1.34
2019-03-22T05:20:25.974Z,1.24
2019-03-22T05:21:25.960Z,1.22
2019-03-22T05:22:25.943Z,1.34
2019-03-22T05:23:25.943Z,1.32
2019-03-22T05:24:25.922Z,1.22
2019-03-22T05:25:25.949Z,1.42
2019-03-22T05:26:25.905Z,1.42
2019-03-22T05:27:25.900Z,1.34
2019-03-22T05:28:25.883Z,1.30
2019-03-22T05:29:30.428Z,1.33
2019-03-22T05:30:26.905Z,1.37
2019-03-22T05:31:25.850Z,1.42
2019-03-22T05:32:25.837Z,1.44
2019-03-22T05:33:25.826Z,1.37
2019-03-22T05:34:25.824Z,1.42
2019-03-22T05:35:25.805Z,1.42
2019-03-22T05:36:25.807Z,1.44
2019-03-22T05:37:25.786Z,1.58
2019-03-22T05:38:25.779Z,1.48
2019-03-22T05:39:25.767Z,1.48
2019-03-22T05:40:25.752Z,1.42
2019-03-22T05:41:25.785Z,1.40
2019-03-22T05:42:25.734Z,1.41
2019-03-22T05:43:25.744Z,1.47
2019-03-22T05:44:25.705Z,1.42
2019-03-22T05:45:36.181Z,1.51
2019-03-22T05:46:25.685Z,1.48
2019-03-22T05:47:25.717Z,1.41
2019-03-22T05:48:25.665Z,1.42
2019-03-22T05:49:25.662Z,1.44
2019-03-22T05:50:25.645Z,1.50
2019-03-22T05:51:25.631Z,1.50
2019-03-22T05:52:25.640Z,1.50
2019-03-22T05:53:25.624Z,1.44
2019-03-22T05:54:25.614Z,1.58
2019-03-22T05:55:25.592Z,1.59
2019-03-22T05:56:25.576Z,1.58
2019-03-22T05:57:25.565Z,1.60
2019-03-22T05:58:25.563Z,1.55
2019-03-22T05:59:25.553Z,1.52
2019-03-22T06:00:25.532Z,1.55
2019-03-22T06:01:25.529Z,1.59
2019-03-22T06:02:25.513Z,1.69
2019-03-22T06:03:25.544Z,1.54
2019-03-22T06:04:25.513Z,1.50
2019-03-22T06:05:25.502Z,1.58
2019-03-22T06:06:25.480Z,1.55
2019-03-22T06:07:25.465Z,1.52
2019-03-22T06:08:25.466Z,1.60
2019-03-22T06:09:25.505Z,1.55
2019-03-22T06:10:25.425Z,1.58
2019-03-22T06:11:25.421Z,1.58
2019-03-22T06:12:25.405Z,1.72
2019-03-22T06:13:25.397Z,1.60
2019-03-22T06:14:25.383Z,1.76
2019-03-22T06:15:25.417Z,1.70
2019-03-22T06:16:35.316Z,1.73
2019-03-22T06:17:25.372Z,1.83
2019-03-22T06:18:25.340Z,1.76
2019-03-22T06:19:25.353Z,1.81
2019-03-22T06:20:25.319Z,1.79
2019-03-22T06:21:25.738Z,1.84
2019-03-22T06:22:25.300Z,1.83
2019-03-22T06:23:25.290Z,1.81
2019-03-22T06:24:25.285Z,1.84
2019-03-22T06:25:25.274Z,1.86
2019-03-22T06:26:25.260Z,1.86
2019-03-22T06:27:25.273Z,1.84
2019-03-22T06:28:25.235Z,1.84
2019-03-22T06:29:25.231Z,1.80
2019-03-22T06:30:25.228Z,1.79
2019-03-22T06:31:25.203Z,1.91
2019-03-22T06:32:25.262Z,1.79
2019-03-22T06:33:25.187Z,1.91
2019-03-22T06:34:25.172Z,2.02
2019-03-22T06:35:25.158Z,2.02
2019-03-22T06:36:25.156Z,2.02
2019-03-22T06:37:25.155Z,1.88
2019-03-22T06:38:25.162Z,1.99
2019-03-22T06:39:25.148Z,2.09
2019-03-22T06:40:25.111Z,2.23
2019-03-22T06:41:25.104Z,2.25
2019-03-22T06:42:25.090Z,2.23
2019-03-22T06:43:25.076Z,2.39
2019-03-22T06:44:25.077Z,2.39
2019-03-22T06:45:25.052Z,2.59
2019-03-22T06:46:25.048Z,2.53
2019-03-22T06:47:37.110Z,2.48
2019-03-22T06:48:25.018Z,2.54
2019-03-22T06:49:25.050Z,2.49
2019-03-22T06:50:24.998Z,2.54
2019-03-22T06:51:24.994Z,2.52
2019-03-22T06:52:24.975Z,2.39
2019-03-22T06:53:24.973Z,2.35
2019-03-22T06:54:31.486Z,2.23
2019-03-22T06:55:25.952Z,2.14
2019-03-22T06:56:24.936Z,2.25
2019-03-22T06:57:24.929Z,2.28
2019-03-22T06:58:24.924Z,2.10
2019-03-22T06:59:24.903Z,2.30
2019-03-22T07:00:24.933Z,2.24
2019-03-22T07:01:24.885Z,2.34
2019-03-22T07:02:24.870Z,2.52
2019-03-22T07:03:24.977Z,2.57
2019-03-22T07:04:24.914Z,2.39
2019-03-22T07:05:24.835Z,2.39
2019-03-22T07:06:24.901Z,2.52
2019-03-22T07:07:24.816Z,2.60
2019-03-22T07:08:24.808Z,2.92
2019-03-22T07:09:24.801Z,2.95
2019-03-22T07:10:24.788Z,2.85
2019-03-22T07:11:24.774Z,2.95
2019-03-22T07:12:24.795Z,2.71
2019-03-22T07:13:24.754Z,2.69
2019-03-22T07:14:24.743Z,2.57
2019-03-22T07:15:24.734Z,2.57
2019-03-22T07:16:24.715Z,2.61
2019-03-22T07:17:24.711Z,2.64
2019-03-22T07:18:35.703Z,2.74
2019-03-22T07:19:24.683Z,2.60
2019-03-22T07:20:24.670Z,2.67
2019-03-22T07:21:24.729Z,2.77
2019-03-22T07:22:24.660Z,2.85
2019-03-22T07:23:24.647Z,2.95
2019-03-22T07:24:24.676Z,2.97
2019-03-22T07:25:24.678Z,2.82
2019-03-22T07:26:24.610Z,2.67
2019-03-22T07:27:24.603Z,2.66
2019-03-22T07:28:24.584Z,2.78
2019-03-22T07:29:24.618Z,2.74
2019-03-22T07:30:25.654Z,2.66
2019-03-22T07:31:24.765Z,2.64
2019-03-22T07:32:25.222Z,2.46
2019-03-22T07:33:24.649Z,2.56
2019-03-22T07:34:24.582Z,2.56
2019-03-22T07:35:25.061Z,2.42
2019-03-22T07:36:24.496Z,2.41
2019-03-22T07:37:24.494Z,2.49
2019-03-22T07:38:24.513Z,2.38
2019-03-22T07:39:24.469Z,2.39
2019-03-22T07:40:24.461Z,2.39
2019-03-22T07:41:24.469Z,2.35
2019-03-22T07:42:24.437Z,2.39
2019-03-22T07:43:24.426Z,2.35
2019-03-22T07:44:24.425Z,2.52
2019-03-22T07:45:24.406Z,2.43
2019-03-22T07:46:24.408Z,2.46
2019-03-22T07:47:24.388Z,2.54
2019-03-22T07:48:24.873Z,2.60
2019-03-22T07:49:35.048Z,2.72
2019-03-22T07:50:24.349Z,2.69
2019-03-22T07:51:24.338Z,2.67
2019-03-22T07:52:24.366Z,2.59
2019-03-22T07:53:24.329Z,2.59
2019-03-22T07:54:24.311Z,2.56
2019-03-22T07:55:24.315Z,2.59
2019-03-22T07:56:24.287Z,2.60
2019-03-22T07:57:24.274Z,2.54
2019-03-22T07:58:24.294Z,2.53
2019-03-22T07:59:24.255Z,2.48
2019-03-22T08:00:30.723Z,2.39
2019-03-22T08:01:25.228Z,2.36
2019-03-22T08:02:25.612Z,2.35
2019-03-22T08:03:24.223Z,2.28
2019-03-22T08:04:24.249Z,2.42
2019-03-22T08:05:24.184Z,2.59
2019-03-22T08:06:24.172Z,2.61
2019-03-22T08:07:24.161Z,2.54
2019-03-22T08:08:24.162Z,2.46
2019-03-22T08:09:24.148Z,2.36
2019-03-22T08:10:25.811Z,2.38
2019-03-22T08:11:24.964Z,2.38
2019-03-22T08:12:24.107Z,2.45
2019-03-22T08:13:24.118Z,2.45
2019-03-22T08:14:24.088Z,2.54
2019-03-22T08:15:24.083Z,2.60
2019-03-22T08:16:24.126Z,2.56
2019-03-22T08:17:24.075Z,2.57
2019-03-22T08:18:24.045Z,2.60
2019-03-22T08:19:24.034Z,2.71
2019-03-22T08:20:38.641Z,2.69
2019-03-22T08:21:24.034Z,2.66
2019-03-22T08:22:24.063Z,2.67
2019-03-22T08:23:24.010Z,2.85
2019-03-22T08:24:23.985Z,2.77
2019-03-22T08:25:32.421Z,2.79
2019-03-22T08:26:24.006Z,2.84
2019-03-22T08:27:23.967Z,2.81
2019-03-22T08:28:24.005Z,2.77
2019-03-22T08:29:23.934Z,2.81
2019-03-22T08:30:23.917Z,2.84
2019-03-22T08:31:23.924Z,2.78
2019-03-22T08:32:23.898Z,2.69
2019-03-22T08:33:23.909Z,2.79
2019-03-22T08:34:23.921Z,2.79
2019-03-22T08:35:23.888Z,2.71
2019-03-22T08:36:23.852Z,2.95
2019-03-22T08:37:23.853Z,2.90
2019-03-22T08:38:23.874Z,2.96
2019-03-22T08:39:23.845Z,2.99
2019-03-22T08:40:23.847Z,3.14
2019-03-22T08:41:24.116Z,3.06
2019-03-22T08:42:23.786Z,3.06
2019-03-22T08:43:23.825Z,3.06
2019-03-22T08:44:23.840Z,3.17
2019-03-22T08:45:23.758Z,3.06
2019-03-22T08:46:23.748Z,3.36
2019-03-22T08:47:33.294Z,3.43
2019-03-22T08:48:24.738Z,3.33
2019-03-22T08:49:23.863Z,3.23
2019-03-22T08:50:23.710Z,3.26
2019-03-22T08:51:23.705Z,3.15
2019-03-22T08:52:23.687Z,3.21
2019-03-22T08:53:23.673Z,3.24
2019-03-22T08:54:23.684Z,3.33
2019-03-22T08:55:23.655Z,3.45
2019-03-22T08:56:36.120Z,3.51
2019-03-22T08:57:24.936Z,3.54
2019-03-22T08:58:23.640Z,3.57
2019-03-22T08:59:23.609Z,3.43
2019-03-22T09:00:23.627Z,3.58
2019-03-22T09:01:23.651Z,3.52
2019-03-22T09:02:23.575Z,3.62
2019-03-22T09:03:23.604Z,3.61
2019-03-22T09:04:23.610Z,3.50
2019-03-22T09:05:23.579Z,3.39
2019-03-22T09:06:23.557Z,3.31
2019-03-22T09:07:24.563Z,3.69
2019-03-22T09:08:23.529Z,3.96
2019-03-22T09:09:23.501Z,3.94
2019-03-22T09:10:23.491Z,4.42
2019-03-22T09:11:23.523Z,5.27
2019-03-22T09:12:23.515Z,4.84
2019-03-22T09:13:23.452Z,4.54
2019-03-22T09:14:23.439Z,4.50
2019-03-22T09:15:23.545Z,4.34
2019-03-22T09:16:23.470Z,4.45
2019-03-22T09:17:23.409Z,4.73
2019-03-22T09:18:23.449Z,4.77
2019-03-22T09:19:23.381Z,4.67
2019-03-22T09:20:23.436Z,4.32
2019-03-22T09:21:23.406Z,4.26
2019-03-22T09:22:23.351Z,4.15
2019-03-22T09:23:23.354Z,4.15
2019-03-22T09:24:23.389Z,4.36
2019-03-22T09:25:23.317Z,4.30
2019-03-22T09:26:23.315Z,4.15
2019-03-22T09:27:36.368Z,4.30
2019-03-22T09:28:23.308Z,4.45
2019-03-22T09:29:23.293Z,4.16
2019-03-22T09:30:23.316Z,4.16
2019-03-22T09:31:23.344Z,4.06
2019-03-22T09:32:23.243Z,4.32
2019-03-22T09:33:23.254Z,4.47
2019-03-22T09:34:33.164Z,4.23
2019-03-22T09:35:24.253Z,4.18
2019-03-22T09:36:23.207Z,4.02
2019-03-22T09:37:23.204Z,4.20
2019-03-22T09:38:23.194Z,4.50
2019-03-22T09:39:23.169Z,5.45
2019-03-22T09:40:23.203Z,5.56
2019-03-22T09:41:23.236Z,5.22
2019-03-22T09:42:23.134Z,4.86
2019-03-22T09:43:23.120Z,5.07
2019-03-22T09:44:23.131Z,4.82
2019-03-22T09:45:23.111Z,4.86
2019-03-22T09:46:23.103Z,4.91
2019-03-22T09:47:23.167Z,4.69
2019-03-22T09:48:23.065Z,4.34
2019-03-22T09:49:23.067Z,4.89
2019-03-22T09:50:23.094Z,5.33
2019-03-22T09:51:23.035Z,6.70
2019-03-22T09:52:23.023Z,6.28
2019-03-22T09:53:23.077Z,6.58
2019-03-22T09:54:23.036Z,7.16
2019-03-22T09:55:23.028Z,8.02
2019-03-22T09:56:22.982Z,8.73
2019-03-22T09:57:22.971Z,7.27
2019-03-22T09:58:33.353Z,6.03
2019-03-22T09:59:22.945Z,5.51
2019-03-22T10:00:22.933Z,5.43
2019-03-22T10:01:24.160Z,5.76
2019-03-22T10:02:22.925Z,5.57
2019-03-22T10:03:22.898Z,5.42
2019-03-22T10:04:22.906Z,5.30
2019-03-22T10:05:22.879Z,5.36
2019-03-22T10:06:22.910Z,5.39
2019-03-22T10:07:22.908Z,5.49
2019-03-22T10:08:22.878Z,5.46
2019-03-22T10:09:22.918Z,5.36
2019-03-22T10:10:22.863Z,5.39
2019-03-22T10:11:22.819Z,5.60
2019-03-22T10:12:22.811Z,5.82
2019-03-22T10:13:22.903Z,6.27
2019-03-22T10:14:22.788Z,6.14
2019-03-22T10:15:22.884Z,6.06
2019-03-22T10:16:22.774Z,5.99
2019-03-22T10:17:22.747Z,5.57
2019-03-22T10:18:22.922Z,5.48
2019-03-22T10:19:22.745Z,5.49
2019-03-22T10:20:22.761Z,5.42
2019-03-22T10:21:23.060Z,5.10
2019-03-22T10:22:22.699Z,4.84
2019-03-22T10:23:22.801Z,5.00
2019-03-22T10:24:22.802Z,5.03
2019-03-22T10:25:22.712Z,5.03
2019-03-22T10:26:22.706Z,5.18
2019-03-22T10:27:22.668Z,5.18
2019-03-22T10:28:22.692Z,5.17
2019-03-22T10:29:33.193Z,5.02
2019-03-22T10:30:22.639Z,5.07
2019-03-22T10:31:22.649Z,5.38
2019-03-22T10:32:23.949Z,6.33
2019-03-22T10:33:23.239Z,6.09
2019-03-22T10:34:22.592Z,6.28
2019-03-22T10:35:26.443Z,6.04
2019-03-22T10:36:22.551Z,6.11
2019-03-22T10:37:22.576Z,5.90
2019-03-22T10:38:31.020Z,5.46
2019-03-22T10:39:23.539Z,5.43
2019-03-22T10:40:22.505Z,5.46
2019-03-22T10:41:22.514Z,5.24
2019-03-22T10:42:22.479Z,6.09
2019-03-22T10:43:22.530Z,7.58
2019-03-22T10:44:22.521Z,6.79
2019-03-22T10:45:22.523Z,6.71
2019-03-22T10:46:22.464Z,8.07
2019-03-22T10:47:22.459Z,8.40
2019-03-22T10:48:22.425Z,8.98
2019-03-22T10:49:22.435Z,10.04
2019-03-22T10:50:22.447Z,9.21
2019-03-22T10:51:22.390Z,8.08
2019-03-22T10:52:22.374Z,9.10
2019-03-22T10:53:22.409Z,8.74
2019-03-22T10:54:22.355Z,7.52
2019-03-22T10:55:29.882Z,6.56
2019-03-22T10:56:24.901Z,7.93
2019-03-22T10:57:22.314Z,8.41
2019-03-22T10:58:22.303Z,9.57
2019-03-22T10:59:22.290Z,9.87
2019-03-22T11:00:32.299Z,9.69
2019-03-22T11:01:22.276Z,9.97
2019-03-22T11:02:22.270Z,10.41
2019-03-22T11:03:22.256Z,10.36
2019-03-22T11:04:22.246Z,10.56
2019-03-22T11:05:22.225Z,10.47
2019-03-22T11:06:26.305Z,11.07
2019-03-22T11:07:22.251Z,10.64
2019-03-22T11:08:22.241Z,10.85
2019-03-22T11:09:22.216Z,11.02
2019-03-22T11:10:22.180Z,11.35
2019-03-22T11:11:22.170Z,11.24
2019-03-22T11:12:22.158Z,11.18
2019-03-22T11:13:22.207Z,11.33
2019-03-22T11:14:22.132Z,11.65
2019-03-22T11:15:23.931Z,11.24
2019-03-22T11:16:22.115Z,11.49
2019-03-22T11:17:22.113Z,11.90
2019-03-22T11:18:22.094Z,11.27
2019-03-22T11:19:22.121Z,11.82
2019-03-22T11:20:22.072Z,12.04
2019-03-22T11:21:22.060Z,12.02
2019-03-22T11:22:22.052Z,12.59
2019-03-22T11:23:22.042Z,12.14
2019-03-22T11:24:22.027Z,10.85
2019-03-22T11:25:22.040Z,10.42
2019-03-22T11:26:22.063Z,10.76
2019-03-22T11:27:22.153Z,11.14
2019-03-22T11:28:21.994Z,10.01
2019-03-22T11:29:21.983Z,10.68
2019-03-22T11:30:21.981Z,10.64
2019-03-22T11:31:39.540Z,10.73
2019-03-22T11:32:22.945Z,11.32
2019-03-22T11:33:21.936Z,11.22
2019-03-22T11:34:21.929Z,10.32
2019-03-22T11:35:21.916Z,11.29
2019-03-22T11:36:21.932Z,11.35
2019-03-22T11:37:21.902Z,12.17
2019-03-22T11:38:22.967Z,12.95
2019-03-22T11:39:21.874Z,13.14
2019-03-22T11:40:21.861Z,13.12
2019-03-22T11:41:21.889Z,13.28
2019-03-22T11:42:21.841Z,13.14
2019-03-22T11:43:21.829Z,13.60
2019-03-22T11:44:21.824Z,14.33
2019-03-22T11:45:21.808Z,14.06
2019-03-22T11:46:21.805Z,11.76
2019-03-22T11:47:21.828Z,12.12
2019-03-22T11:48:21.784Z,12.27
2019-03-22T11:49:21.772Z,12.21
2019-03-22T11:50:21.760Z,12.52
2019-03-22T11:51:21.755Z,12.13
2019-03-22T11:52:21.737Z,12.39
2019-03-22T11:53:21.747Z,12.28
2019-03-22T11:54:21.720Z,12.14
2019-03-22T11:55:21.715Z,12.90
2019-03-22T11:56:21.706Z,12.96
2019-03-22T11:57:21.691Z,12.05
2019-03-22T11:58:21.677Z,11.91
2019-03-22T11:59:21.680Z,12.17
2019-03-22T12:00:21.655Z,12.79
2019-03-22T12:01:22.634Z,12.50
2019-03-22T12:02:31.778Z,12.09
2019-03-22T12:03:21.632Z,12.10
2019-03-22T12:04:21.658Z,12.17
2019-03-22T12:05:21.606Z,12.20
2019-03-22T12:06:21.593Z,12.54
2019-03-22T12:07:21.589Z,12.57
2019-03-22T12:08:22.381Z,13.23
2019-03-22T12:09:23.005Z,13.42
2019-03-22T12:10:21.595Z,12.95
2019-03-22T12:11:21.547Z,13.20
2019-03-22T12:12:21.539Z,11.44
2019-03-22T12:13:21.522Z,11.75
2019-03-22T12:14:21.511Z,11.99
2019-03-22T12:15:21.503Z,12.56
2019-03-22T12:16:21.534Z,12.46
2019-03-22T12:17:21.484Z,12.97
2019-03-22T12:18:21.473Z,13.00
2019-03-22T12:19:21.524Z,13.42
2019-03-22T12:20:21.455Z,13.64
2019-03-22T12:21:21.440Z,12.64
2019-03-22T12:22:21.472Z,13.41
2019-03-22T12:23:21.421Z,13.45
2019-03-22T12:24:21.411Z,12.32
2019-03-22T12:25:21.400Z,12.12
2019-03-22T12:26:21.394Z,12.70
2019-03-22T12:27:21.383Z,12.60
2019-03-22T12:28:21.396Z,13.07
2019-03-22T12:29:21.377Z,13.64
2019-03-22T12:30:21.355Z,13.15
2019-03-22T12:31:21.337Z,12.77
2019-03-22T12:32:21.328Z,12.50
2019-03-22T12:33:31.919Z,13.10
2019-03-22T12:34:21.307Z,13.41
2019-03-22T12:35:21.299Z,13.64
2019-03-22T12:36:21.292Z,13.67
2019-03-22T12:37:21.293Z,12.82
2019-03-22T12:38:21.269Z,11.83
2019-03-22T12:39:21.258Z,12.02
2019-03-22T12:40:21.249Z,12.77
2019-03-22T12:41:21.234Z,12.85
2019-03-22T12:42:21.226Z,13.10
2019-03-22T12:43:21.230Z,13.52
2019-03-22T12:44:21.242Z,12.77
2019-03-22T12:45:21.194Z,12.56
2019-03-22T12:46:21.195Z,13.46
2019-03-22T12:47:21.187Z,12.92
2019-03-22T12:48:21.162Z,12.78
2019-03-22T12:49:21.158Z,12.54
2019-03-22T12:50:21.151Z,13.29
2019-03-22T12:51:21.130Z,13.49
2019-03-22T12:52:21.120Z,12.72
2019-03-22T12:53:21.115Z,13.08
2019-03-22T12:54:21.103Z,13.60
2019-03-22T12:55:21.106Z,13.62
2019-03-22T12:56:21.089Z,13.30
2019-03-22T12:57:21.078Z,12.97
2019-03-22T12:58:21.066Z,12.54
2019-03-22T12:59:21.053Z,12.54
2019-03-22T13:00:21.038Z,13.04
2019-03-22T13:01:21.224Z,13.85
2019-03-22T13:02:21.024Z,13.20
2019-03-22T13:03:21.012Z,13.62
2019-03-22T13:04:31.272Z,14.18
2019-03-22T13:05:20.990Z,13.89
2019-03-22T13:06:20.979Z,14.04
2019-03-22T13:07:20.987Z,13.89
2019-03-22T13:08:20.968Z,12.97
2019-03-22T13:09:20.953Z,12.21
2019-03-22T13:10:20.941Z,13.14
2019-03-22T13:11:20.965Z,12.57
2019-03-22T13:12:20.916Z,12.65
2019-03-22T13:13:20.919Z,13.42
2019-03-22T13:14:20.901Z,13.36